createdAt,value
2023-07-21T00:01:19.046Z,14.12
2023-07-21T00:03:46.224Z,14.13
2023-07-21T00:06:18.088Z,14.07
2023-07-21T00:08:44.720Z,13.91
2023-07-21T00:11:11.336Z,14.01
2023-07-21T00:13:38.035Z,13.99
2023-07-21T00:16:05.671Z,13.98
2023-07-21T00:18:34.296Z,13.87
2023-07-21T00:21:01.270Z,13.93
2023-07-21T00:23:28.378Z,13.92
2023-07-21T00:25:55.857Z,13.91
2023-07-21T00:28:22.769Z,13.87
2023-07-21T00:30:49.671Z,13.83
2023-07-21T00:33:16.971Z,13.75
2023-07-21T00:35:44.295Z,13.70
2023-07-21T00:38:11.556Z,13.72
2023-07-21T00:40:39.025Z,13.68
2023-07-21T00:43:07.506Z,13.64
2023-07-21T00:45:38.683Z,13.57
2023-07-21T00:48:08.760Z,13.49
2023-07-21T00:50:48.713Z,13.51
2023-07-21T00:53:15.885Z,13.47
2023-07-21T00:55:43.419Z,13.34
2023-07-21T00:58:11.101Z,13.24
2023-07-21T01:00:38.417Z,13.34
2023-07-21T01:03:06.688Z,13.17
2023-07-21T01:05:36.834Z,13.36
2023-07-21T01:08:08.936Z,13.29
2023-07-21T01:10:37.921Z,13.29
2023-07-21T01:13:05.635Z,13.35
2023-07-21T01:15:35.429Z,13.33
2023-07-21T01:18:03.527Z,13.24
2023-07-21T01:20:31.034Z,13.18
2023-07-21T01:23:06.551Z,13.21
2023-07-21T01:25:36.603Z,13.09
2023-07-21T01:28:05.963Z,13.03
2023-07-21T01:30:33.660Z,12.75
2023-07-21T01:33:02.163Z,12.81
2023-07-21T01:35:31.995Z,12.80
2023-07-21T01:38:00.395Z,12.75
2023-07-21T01:40:28.117Z,12.74
2023-07-21T01:42:54.683Z,12.64
2023-07-21T01:45:21.345Z,12.65
2023-07-21T01:47:48.488Z,12.57
2023-07-21T01:50:18.593Z,12.47
2023-07-21T01:52:46.616Z,12.53
2023-07-21T01:55:23.485Z,12.52
2023-07-21T01:57:55.224Z,12.55
2023-07-21T02:00:26.074Z,12.47
2023-07-21T02:02:54.797Z,12.57
2023-07-21T02:05:23.458Z,12.51
2023-07-21T02:07:50.626Z,12.50
2023-07-21T02:10:18.307Z,12.60
2023-07-21T02:12:45.037Z,12.54
2023-07-21T02:15:11.834Z,12.53
2023-07-21T02:17:38.952Z,12.36
2023-07-21T02:20:08.846Z,12.37
2023-07-21T02:22:39.087Z,12.30
2023-07-21T02:25:06.832Z,12.27
2023-07-21T02:27:34.515Z,12.30
2023-07-21T02:30:02.091Z,12.30
2023-07-21T02:32:29.394Z,12.22
2023-07-21T02:34:59.124Z,12.21
2023-07-21T02:37:26.404Z,12.24
2023-07-21T02:39:53.250Z,12.22
2023-07-21T02:42:20.071Z,12.20
2023-07-21T02:44:47.025Z,12.07
2023-07-21T02:47:17.639Z,12.14
2023-07-21T02:49:45.549Z,12.13
2023-07-21T02:52:13.035Z,12.13
2023-07-21T02:54:39.927Z,12.11
2023-07-21T02:57:08.597Z,12.07
2023-07-21T02:59:35.740Z,12.09
2023-07-21T03:02:02.375Z,12.08
2023-07-21T03:04:29.538Z,12.00
2023-07-21T03:06:56.598Z,12.03
2023-07-21T03:09:23.308Z,11.92
2023-07-21T03:11:49.867Z,11.90
2023-07-21T03:14:16.469Z,11.87
2023-07-21T03:16:43.999Z,11.76
2023-07-21T03:19:11.513Z,11.69
2023-07-21T03:21:38.078Z,11.75
2023-07-21T03:24:05.213Z,11.72
2023-07-21T03:26:31.810Z,11.70
2023-07-21T03:28:58.377Z,11.64
2023-07-21T03:31:25.081Z,11.59
2023-07-21T03:33:51.690Z,11.64
2023-07-21T03:36:21.636Z,11.60
2023-07-21T03:38:48.393Z,11.45
2023-07-21T03:41:14.939Z,11.52
2023-07-21T03:43:41.547Z,11.67
2023-07-21T03:46:08.759Z,11.67
2023-07-21T03:48:35.742Z,11.64
2023-07-21T03:51:11.514Z,11.63
2023-07-21T03:53:46.549Z,11.63
2023-07-21T03:56:13.089Z,11.72
2023-07-21T03:58:39.701Z,11.71
2023-07-21T04:01:06.376Z,11.72
2023-07-21T04:03:33.093Z,11.72
2023-07-21T04:06:05.314Z,11.77
2023-07-21T04:08:32.012Z,11.77
2023-07-21T04:10:58.594Z,11.79
2023-07-21T04:13:25.628Z,11.76
2023-07-21T04:15:52.501Z,11.82
2023-07-21T04:18:19.283Z,11.84
2023-07-21T04:20:45.851Z,11.88
2023-07-21T04:23:12.394Z,11.93
2023-07-21T04:25:38.954Z,11.93
2023-07-21T04:28:06.797Z,11.99
2023-07-21T04:30:33.500Z,11.99
2023-07-21T04:33:00.638Z,12.01
2023-07-21T04:35:27.288Z,11.96
2023-07-21T04:37:53.943Z,12.01
2023-07-21T04:40:21.403Z,12.03
2023-07-21T04:42:49.000Z,12.00
2023-07-21T04:45:15.561Z,12.09
2023-07-21T04:47:42.329Z,12.10
2023-07-21T04:50:09.571Z,12.11
2023-07-21T04:52:38.498Z,11.96
2023-07-21T04:55:07.032Z,12.15
2023-07-21T04:57:35.423Z,12.24
2023-07-21T05:00:03.457Z,12.29
2023-07-21T05:02:30.965Z,12.12
2023-07-21T05:05:01.002Z,12.24
2023-07-21T05:07:27.807Z,12.25
2023-07-21T05:09:56.980Z,12.46
2023-07-21T05:12:26.967Z,12.54
2023-07-21T05:14:53.718Z,12.62
2023-07-21T05:17:20.791Z,12.61
2023-07-21T05:19:50.820Z,12.45
2023-07-21T05:22:17.796Z,12.77
2023-07-21T05:24:44.579Z,12.82
2023-07-21T05:27:12.434Z,12.87
2023-07-21T05:29:39.045Z,12.92
2023-07-21T05:32:07.098Z,12.97
2023-07-21T05:34:34.087Z,13.02
2023-07-21T05:37:01.780Z,13.00
2023-07-21T05:39:31.531Z,13.13
2023-07-21T05:41:59.446Z,13.14
2023-07-21T05:44:28.134Z,13.22
2023-07-21T05:46:55.132Z,13.27
2023-07-21T05:49:22.109Z,13.32
2023-07-21T05:51:50.383Z,13.36
2023-07-21T05:54:17.329Z,13.39
2023-07-21T05:56:43.835Z,13.44
2023-07-21T05:59:10.393Z,13.51
2023-07-21T06:01:37.663Z,13.58
2023-07-21T06:04:07.324Z,13.64
2023-07-21T06:06:34.132Z,13.71
2023-07-21T06:09:00.866Z,13.79
2023-07-21T06:11:28.323Z,13.79
2023-07-21T06:13:55.732Z,13.84
2023-07-21T06:16:26.455Z,13.93
2023-07-21T06:18:53.933Z,13.92
2023-07-21T06:21:24.229Z,14.17
2023-07-21T06:23:52.699Z,14.18
2023-07-21T06:26:19.428Z,14.02
2023-07-21T06:28:46.165Z,14.23
2023-07-21T06:31:13.469Z,14.32
2023-07-21T06:33:40.208Z,14.38
2023-07-21T06:36:07.287Z,14.37
2023-07-21T06:38:34.723Z,14.41
2023-07-21T06:41:05.570Z,14.34
2023-07-21T06:43:35.325Z,14.43
2023-07-21T06:46:03.895Z,14.49
2023-07-21T06:48:30.788Z,14.57
2023-07-21T06:50:57.812Z,14.44
2023-07-21T06:53:24.603Z,14.47
2023-07-21T06:55:51.931Z,14.58
2023-07-21T06:58:18.953Z,14.81
2023-07-21T07:00:46.646Z,14.69
2023-07-21T07:03:13.397Z,14.91
2023-07-21T07:05:43.082Z,14.99
2023-07-21T07:08:11.835Z,14.91
2023-07-21T07:10:40.136Z,14.93
2023-07-21T07:13:07.164Z,14.90
2023-07-21T07:15:35.458Z,15.20
2023-07-21T07:18:03.273Z,15.20
2023-07-21T07:20:30.378Z,15.43
2023-07-21T07:22:57.362Z,15.47
2023-07-21T07:25:27.298Z,15.49
2023-07-21T07:27:54.207Z,15.54
2023-07-21T07:30:21.753Z,15.66
2023-07-21T07:32:49.951Z,15.77
2023-07-21T07:35:17.831Z,15.85
2023-07-21T07:37:44.874Z,15.89
2023-07-21T07:40:11.959Z,16.02
2023-07-21T07:42:41.270Z,16.09
2023-07-21T07:45:08.107Z,16.19
2023-07-21T07:47:35.958Z,16.26
2023-07-21T07:50:03.021Z,16.31
2023-07-21T07:52:29.640Z,16.50
2023-07-21T07:54:56.440Z,16.55
2023-07-21T07:57:26.236Z,16.77
2023-07-21T07:59:52.870Z,16.89
2023-07-21T08:02:19.479Z,16.97
2023-07-21T08:04:46.113Z,17.18
2023-07-21T08:07:12.967Z,17.23
2023-07-21T08:09:39.585Z,17.22
2023-07-21T08:12:06.408Z,17.34
2023-07-21T08:14:33.018Z,17.69
2023-07-21T08:17:03.690Z,18.03
2023-07-21T08:19:33.136Z,18.36
2023-07-21T08:22:08.480Z,18.76
2023-07-21T08:24:35.290Z,19.19
2023-07-21T08:27:04.829Z,19.44
2023-07-21T08:29:31.424Z,19.52
2023-07-21T08:31:58.116Z,19.65
2023-07-21T08:34:24.789Z,19.69
2023-07-21T08:36:54.974Z,19.60
2023-07-21T08:39:22.534Z,19.71
2023-07-21T08:41:53.172Z,19.65
2023-07-21T08:44:21.020Z,19.73
2023-07-21T08:46:47.780Z,20.00
2023-07-21T08:49:18.590Z,20.09
2023-07-21T08:51:46.741Z,20.23
2023-07-21T08:54:13.755Z,20.19
2023-07-21T08:56:40.470Z,19.93
2023-07-21T08:59:07.688Z,19.75
2023-07-21T09:01:34.308Z,19.61
2023-07-21T09:04:01.371Z,19.48
2023-07-21T09:06:28.275Z,19.55
2023-07-21T09:08:55.956Z,19.56
2023-07-21T09:11:26.041Z,19.86
2023-07-21T09:13:55.496Z,20.15
2023-07-21T09:16:22.763Z,20.47
2023-07-21T09:18:49.910Z,20.41
2023-07-21T09:21:24.817Z,20.18
2023-07-21T09:23:52.774Z,20.21
2023-07-21T09:26:24.437Z,20.62
2023-07-21T09:28:51.772Z,21.14
2023-07-21T09:31:18.627Z,21.34
2023-07-21T09:33:46.913Z,21.80
2023-07-21T09:36:16.831Z,22.10
2023-07-21T09:38:45.196Z,22.16
2023-07-21T09:41:14.393Z,21.80
2023-07-21T09:43:45.075Z,21.37
2023-07-21T09:48:43.036Z,20.95
2023-07-21T09:51:11.448Z,21.15
2023-07-21T09:53:40.489Z,21.22
2023-07-21T09:56:09.836Z,21.13
2023-07-21T09:58:43.198Z,20.77
2023-07-21T10:01:14.141Z,20.53
2023-07-21T10:03:43.136Z,20.39
2023-07-21T10:06:10.875Z,20.46
2023-07-21T10:08:39.562Z,20.60
2023-07-21T10:11:08.382Z,20.71
2023-07-21T10:13:44.158Z,20.58
2023-07-21T10:16:11.039Z,20.35
2023-07-21T10:19:14.162Z,20.07
2023-07-21T10:21:54.806Z,19.92
2023-07-21T10:24:26.744Z,19.93
2023-07-21T10:27:01.084Z,19.93
2023-07-21T10:29:27.906Z,19.91
2023-07-21T10:31:58.430Z,19.70
2023-07-21T10:34:31.746Z,19.62
2023-07-21T10:37:05.770Z,19.56
2023-07-21T10:39:35.633Z,19.48
2023-07-21T10:42:06.193Z,19.54
2023-07-21T10:44:40.618Z,19.66
2023-07-21T10:47:22.206Z,20.04
2023-07-21T10:49:50.283Z,20.44
2023-07-21T10:52:17.972Z,20.62
2023-07-21T10:54:44.845Z,20.68
2023-07-21T10:57:12.434Z,20.55
2023-07-21T10:59:39.236Z,20.54
2023-07-21T11:02:10.631Z,21.02
2023-07-21T11:04:41.682Z,21.62
2023-07-21T11:07:08.760Z,21.79
2023-07-21T11:09:36.489Z,22.14
2023-07-21T11:12:05.387Z,22.67
2023-07-21T11:14:32.465Z,22.80
2023-07-21T11:17:01.937Z,23.06
2023-07-21T11:19:35.102Z,23.54
2023-07-21T11:22:04.253Z,23.89
2023-07-21T11:24:32.649Z,24.32
2023-07-21T11:27:12.309Z,24.26
2023-07-21T11:29:45.987Z,24.11
2023-07-21T11:32:24.881Z,24.22
2023-07-21T11:34:59.529Z,24.09
2023-07-21T11:37:35.587Z,24.20
2023-07-21T11:40:16.244Z,23.99
2023-07-21T11:42:53.952Z,24.07
2023-07-21T11:45:40.696Z,24.24
2023-07-21T11:48:20.514Z,24.51
2023-07-21T11:50:55.529Z,24.45
2023-07-21T11:53:24.328Z,24.49
2023-07-21T11:55:51.453Z,24.39
2023-07-21T11:58:18.100Z,24.48
2023-07-21T12:00:45.046Z,24.47
2023-07-21T12:03:12.163Z,24.68
2023-07-21T12:05:39.586Z,24.97
2023-07-21T12:08:07.217Z,25.44
2023-07-21T12:10:33.989Z,25.73
2023-07-21T12:13:00.794Z,25.81
2023-07-21T12:15:30.622Z,25.61
2023-07-21T12:17:57.462Z,25.65
2023-07-21T12:20:24.146Z,25.64
2023-07-21T12:22:50.767Z,25.67
2023-07-21T12:25:17.353Z,25.42
2023-07-21T12:27:44.039Z,25.58
2023-07-21T12:30:12.006Z,25.30
2023-07-21T12:32:38.977Z,24.81
2023-07-21T12:35:06.352Z,24.44
2023-07-21T12:37:33.880Z,24.20
2023-07-21T12:40:01.230Z,23.85
2023-07-21T12:42:32.534Z,23.60
2023-07-21T12:44:59.161Z,23.33
2023-07-21T12:47:25.829Z,23.07
2023-07-21T12:49:52.478Z,22.88
2023-07-21T12:52:19.172Z,22.69
2023-07-21T12:54:46.976Z,22.49
2023-07-21T12:57:13.839Z,22.47
2023-07-21T12:59:40.528Z,22.33
2023-07-21T13:02:07.539Z,22.23
2023-07-21T13:04:34.256Z,22.14
2023-07-21T13:07:01.630Z,21.95
2023-07-21T13:09:28.397Z,21.67
2023-07-21T13:11:55.288Z,21.76
2023-07-21T13:14:22.052Z,21.68
2023-07-21T13:16:48.681Z,21.61
2023-07-21T13:19:15.272Z,21.58
2023-07-21T13:21:42.091Z,21.53
2023-07-21T13:24:08.740Z,21.46
2023-07-21T13:26:36.157Z,21.33
2023-07-21T13:29:03.203Z,21.42
2023-07-21T13:31:30.136Z,21.48
2023-07-21T13:33:57.529Z,21.52
2023-07-21T13:36:24.868Z,21.52
2023-07-21T13:38:53.293Z,21.54
2023-07-21T13:41:20.140Z,21.59
2023-07-21T13:43:46.930Z,21.61
2023-07-21T13:46:13.705Z,21.64
2023-07-21T13:48:40.821Z,21.69
2023-07-21T13:51:07.744Z,21.72
2023-07-21T13:53:34.650Z,21.73
2023-07-21T13:56:03.722Z,21.63
2023-07-21T13:58:30.521Z,21.59
2023-07-21T14:00:57.328Z,21.57
2023-07-21T14:03:24.309Z,21.45
2023-07-21T14:05:53.176Z,21.51
2023-07-21T14:08:20.801Z,21.50
2023-07-21T14:10:47.663Z,21.44
2023-07-21T14:13:14.532Z,21.52
2023-07-21T14:15:41.349Z,21.44
2023-07-21T14:18:08.207Z,21.41
2023-07-21T14:20:35.304Z,21.30
2023-07-21T14:23:02.166Z,21.14
2023-07-21T14:25:29.156Z,21.13
2023-07-21T14:27:56.370Z,21.09
2023-07-21T14:30:23.243Z,20.96
2023-07-21T14:32:49.888Z,21.06
2023-07-21T14:35:18.973Z,21.11
2023-07-21T14:37:45.542Z,21.18
2023-07-21T14:40:12.731Z,21.18
2023-07-21T14:42:40.007Z,21.21
2023-07-21T14:45:08.259Z,21.22
2023-07-21T14:47:35.498Z,21.23
2023-07-21T14:50:02.527Z,21.24
2023-07-21T14:52:30.660Z,21.24
2023-07-21T14:54:59.023Z,21.16
2023-07-21T14:57:27.217Z,21.14
2023-07-21T14:59:53.892Z,21.16
2023-07-21T15:02:21.239Z,21.12
2023-07-21T15:04:48.833Z,21.22
2023-07-21T15:07:16.179Z,21.18
2023-07-21T15:09:44.253Z,21.15
2023-07-21T15:12:10.856Z,21.11
2023-07-21T15:14:37.406Z,21.13
2023-07-21T15:17:04.489Z,21.17
2023-07-21T15:19:31.074Z,21.20
2023-07-21T15:21:57.608Z,21.20
2023-07-21T15:24:24.159Z,21.16
2023-07-21T15:26:50.766Z,21.15
2023-07-21T15:29:17.312Z,21.12
2023-07-21T15:31:43.954Z,21.10
2023-07-21T15:34:13.328Z,21.10
2023-07-21T15:36:39.898Z,21.14
2023-07-21T15:39:07.708Z,21.20
2023-07-21T15:41:34.303Z,21.22
2023-07-21T15:44:00.847Z,21.21
2023-07-21T15:46:28.823Z,21.18
2023-07-21T15:48:55.881Z,21.14
2023-07-21T15:51:23.520Z,21.04
2023-07-21T15:53:56.641Z,21.05
2023-07-21T15:56:29.823Z,21.02
2023-07-21T15:58:56.817Z,20.98
2023-07-21T16:01:23.576Z,20.98
2023-07-21T16:03:53.200Z,20.95
2023-07-21T16:06:19.761Z,20.93
2023-07-21T16:08:47.703Z,20.86
2023-07-21T16:11:14.282Z,20.79
2023-07-21T16:13:40.877Z,20.79
2023-07-21T16:16:07.550Z,20.81
2023-07-21T16:18:34.353Z,20.85
2023-07-21T16:21:00.997Z,20.79
2023-07-21T16:23:27.620Z,20.87
2023-07-21T16:25:54.941Z,20.88
2023-07-21T16:28:21.762Z,20.90
2023-07-21T16:30:48.882Z,20.87
2023-07-21T16:33:15.601Z,20.85
2023-07-21T16:35:42.610Z,20.83
2023-07-21T16:38:09.762Z,20.78
2023-07-21T16:40:36.510Z,20.75
2023-07-21T16:43:03.763Z,20.74
2023-07-21T16:45:30.720Z,20.75
2023-07-21T16:47:57.612Z,20.67
2023-07-21T16:50:26.652Z,20.71
2023-07-21T16:52:53.405Z,20.69
2023-07-21T16:55:20.440Z,20.69
2023-07-21T16:57:47.748Z,20.65
2023-07-21T17:00:16.860Z,20.57
2023-07-21T17:02:43.777Z,20.53
2023-07-21T17:05:25.211Z,20.40
2023-07-21T17:07:57.483Z,20.43
2023-07-21T17:10:24.786Z,20.37
2023-07-21T17:12:51.556Z,20.35
2023-07-21T17:15:18.387Z,20.28
2023-07-21T17:17:45.548Z,20.20
2023-07-21T17:20:13.599Z,20.05
2023-07-21T17:22:46.771Z,20.04
2023-07-21T17:25:13.924Z,19.88
2023-07-21T17:27:40.688Z,19.73
2023-07-21T17:30:08.034Z,19.57
2023-07-21T17:32:34.814Z,19.29
2023-07-21T17:35:01.707Z,18.79
2023-07-21T17:37:28.497Z,18.13
2023-07-21T17:39:55.389Z,17.60
2023-07-21T17:42:22.533Z,17.00
2023-07-21T17:44:49.285Z,16.61
2023-07-21T17:47:16.121Z,16.21
2023-07-21T17:49:42.945Z,16.00
2023-07-21T17:52:09.715Z,15.79
2023-07-21T17:54:36.460Z,15.56
2023-07-21T17:57:04.755Z,15.45
2023-07-21T17:59:32.027Z,15.33
2023-07-21T18:01:58.946Z,15.32
2023-07-21T18:04:26.161Z,15.30
2023-07-21T18:06:52.957Z,15.17
2023-07-21T18:09:19.727Z,15.03
2023-07-21T18:11:46.494Z,14.97
2023-07-21T18:14:13.449Z,14.96
2023-07-21T18:16:40.204Z,14.94
2023-07-21T18:19:07.917Z,14.98
2023-07-21T18:21:35.522Z,15.05
2023-07-21T18:24:02.268Z,15.08
2023-07-21T18:26:29.050Z,14.97
2023-07-21T18:28:56.024Z,15.06
2023-07-21T18:31:25.263Z,15.10
2023-07-21T18:33:52.308Z,15.12
2023-07-21T18:36:20.386Z,15.13
2023-07-21T18:38:47.647Z,15.04
2023-07-21T18:41:15.721Z,15.12
2023-07-21T18:43:43.373Z,15.06
2023-07-21T18:46:10.155Z,15.07
2023-07-21T18:48:36.910Z,15.11
2023-07-21T18:51:03.780Z,15.09
2023-07-21T18:53:30.736Z,15.08
2023-07-21T18:55:57.503Z,15.08
2023-07-21T18:58:24.310Z,15.03
2023-07-21T19:00:51.431Z,15.07
2023-07-21T19:03:18.333Z,15.05
2023-07-21T19:05:45.100Z,14.99
2023-07-21T19:08:12.150Z,14.93
2023-07-21T19:10:40.271Z,14.84
2023-07-21T19:13:06.900Z,14.76
2023-07-21T19:15:33.489Z,14.67
2023-07-21T19:18:00.203Z,14.84
2023-07-21T19:20:26.847Z,14.97
2023-07-21T19:22:53.390Z,14.91
2023-07-21T19:25:19.951Z,14.99
2023-07-21T19:27:46.569Z,15.00
2023-07-21T19:30:14.619Z,14.98
2023-07-21T19:32:43.209Z,15.01
2023-07-21T19:35:10.435Z,15.00
2023-07-21T19:37:38.146Z,14.95
2023-07-21T19:40:08.174Z,14.94
2023-07-21T19:42:34.773Z,14.88
2023-07-21T19:45:01.380Z,14.74
2023-07-21T19:47:29.659Z,14.75
2023-07-21T19:49:56.189Z,14.70
2023-07-21T19:52:22.732Z,14.62
2023-07-21T19:54:49.303Z,14.61
2023-07-21T19:57:16.062Z,14.62
2023-07-21T19:59:42.640Z,14.58
2023-07-21T20:02:09.319Z,14.50
2023-07-21T20:04:36.170Z,14.49
2023-07-21T20:07:05.516Z,14.46
2023-07-21T20:09:32.266Z,14.40
2023-07-21T20:11:58.826Z,14.35
2023-07-21T20:14:25.418Z,14.37
2023-07-21T20:16:52.041Z,14.36
2023-07-21T20:19:18.625Z,14.35
2023-07-21T20:21:45.217Z,14.26
2023-07-21T20:24:11.923Z,14.30
2023-07-21T20:26:38.919Z,14.31
2023-07-21T20:29:06.212Z,14.21
2023-07-21T20:31:32.943Z,14.30
2023-07-21T20:33:59.926Z,14.28
2023-07-21T20:36:26.752Z,14.31
2023-07-21T20:38:53.570Z,14.34
2023-07-21T20:41:20.149Z,14.26
2023-07-21T20:43:46.940Z,14.29
2023-07-21T20:46:13.940Z,14.21
2023-07-21T20:48:40.522Z,14.27
2023-07-21T20:51:07.076Z,14.31
2023-07-21T20:53:33.653Z,14.24
2023-07-21T20:56:00.244Z,14.34
2023-07-21T20:58:26.857Z,14.27
2023-07-21T21:00:58.705Z,14.37
2023-07-21T21:03:25.665Z,14.27
2023-07-21T21:05:57.009Z,14.26
2023-07-21T21:08:23.734Z,14.10
2023-07-21T21:10:50.531Z,14.25
2023-07-21T21:13:17.399Z,14.37
2023-07-21T21:15:47.832Z,14.34
2023-07-21T21:18:15.299Z,14.33
2023-07-21T21:20:42.124Z,14.30
2023-07-21T21:23:08.676Z,14.22
2023-07-21T21:25:36.081Z,14.24
2023-07-21T21:28:02.870Z,14.25
2023-07-21T21:30:29.706Z,14.14
2023-07-21T21:32:56.273Z,14.10
2023-07-21T21:35:22.834Z,14.22
2023-07-21T21:37:50.223Z,14.22
2023-07-21T21:40:16.820Z,14.09
2023-07-21T21:42:43.382Z,14.01
2023-07-21T21:45:10.475Z,13.99
2023-07-21T21:47:37.118Z,14.07
2023-07-21T21:50:03.929Z,14.09
2023-07-21T21:52:30.612Z,13.90
2023-07-21T21:54:57.424Z,14.06
2023-07-21T21:57:24.130Z,14.03
2023-07-21T21:59:50.876Z,14.00
2023-07-21T22:02:17.601Z,13.80
2023-07-21T22:04:45.836Z,13.85
2023-07-21T22:07:13.642Z,14.01
2023-07-21T22:09:40.275Z,13.94
2023-07-21T22:12:09.318Z,13.92
2023-07-21T22:14:36.769Z,13.95
2023-07-21T22:17:03.861Z,13.66
2023-07-21T22:19:30.601Z,13.77
2023-07-21T22:21:57.308Z,13.80
2023-07-21T22:24:25.034Z,13.65
2023-07-21T22:26:51.898Z,13.82
2023-07-21T22:29:18.573Z,13.82
2023-07-21T22:31:45.318Z,13.77
2023-07-21T22:34:12.216Z,13.77
2023-07-21T22:36:38.930Z,13.73
2023-07-21T22:39:07.563Z,13.69
2023-07-21T22:41:34.609Z,13.48
2023-07-21T22:44:01.450Z,13.45
2023-07-21T22:46:28.545Z,13.68
2023-07-21T22:48:55.452Z,13.47
2023-07-21T22:51:23.405Z,13.64
2023-07-21T22:53:50.085Z,13.50
2023-07-21T22:56:16.730Z,13.59
2023-07-21T22:58:43.642Z,13.55
2023-07-21T23:01:11.874Z,13.54
2023-07-21T23:03:38.644Z,13.56
2023-07-21T23:06:05.915Z,13.54
2023-07-21T23:08:33.873Z,13.60
2023-07-21T23:11:00.676Z,13.40
2023-07-21T23:13:27.447Z,13.26
2023-07-21T23:15:54.334Z,13.41
2023-07-21T23:18:21.267Z,13.36
2023-07-21T23:20:48.293Z,13.50
2023-07-21T23:23:15.183Z,13.49
2023-07-21T23:25:42.226Z,13.50
2023-07-21T23:28:10.997Z,13.55
2023-07-21T23:30:38.775Z,13.55
2023-07-21T23:33:06.574Z,13.25
2023-07-21T23:35:33.677Z,13.28
2023-07-21T23:38:01.000Z,13.49
2023-07-21T23:40:28.930Z,13.30
2023-07-21T23:42:55.829Z,13.49
2023-07-21T23:45:22.796Z,13.49
2023-07-21T23:47:50.502Z,13.29
2023-07-21T23:50:17.543Z,13.50
2023-07-21T23:52:44.452Z,13.47
2023-07-21T23:55:11.324Z,13.46
2023-07-21T23:57:38.220Z,13.24
